Time;durP1;ratioP1;P1;durP2;ratioP2;P2;SDS_P1;SDS_P2;PMS_P1;PMS_P2;Temp;Humidity;BMP_temperature;BMP_pressure;BME280_temperature;BME280_humidity;BME280_pressure;Samples;Min_cycle;Max_cycle;Signal;HPM_P1;HPM_P2
2024/02/21 00:01:49;;;;;;;19.07;7.43;;;;;;;8.32;100.00;102228.88;5110243;28;20056;-39
2024/02/21 00:04:14;;;;;;;18.23;6.90;;;;;;;8.28;100.00;102224.84;5110700;28;20052;-39
2024/02/21 00:06:39;;;;;;;16.47;7.50;;;;;;;8.29;100.00;102220.31;5101371;28;20058;-40
2024/02/21 00:09:05;;;;;;;17.57;7.33;;;;;;;8.30;100.00;102222.00;5097036;28;20036;-39
2024/02/21 00:11:30;;;;;;;18.77;7.57;;;;;;;8.21;100.00;102205.06;5096450;28;20019;-40
2024/02/21 00:13:55;;;;;;;13.90;7.50;;;;;;;8.26;100.00;102221.53;5096842;28;20111;-40
2024/02/21 00:16:21;;;;;;;16.70;7.97;;;;;;;8.27;100.00;102220.50;5096295;28;20346;-40
2024/02/21 00:18:46;;;;;;;19.00;7.63;;;;;;;8.27;100.00;102231.28;5096087;28;20496;-40
2024/02/21 00:21:17;;;;;;;16.65;7.10;;;;;;;8.27;100.00;102231.28;5096284;28;20432;-39
2024/02/21 00:23:45;;;;;;;13.05;7.22;;;;;;;8.24;100.00;102221.69;5096781;28;20127;-40
2024/02/21 00:26:11;;;;;;;19.50;8.00;;;;;;;8.25;100.00;102219.84;5096135;28;20031;-39
2024/02/21 00:28:37;;;;;;;20.02;7.32;;;;;;;8.24;100.00;102207.38;5096384;28;20016;-39
2024/02/21 00:31:02;;;;;;;14.77;7.87;;;;;;;8.25;100.00;102201.00;5096596;28;20035;-39
2024/02/21 00:33:28;;;;;;;17.85;8.35;;;;;;;8.15;100.00;102178.81;5096591;28;20085;-40
2024/02/21 00:35:53;;;;;;;15.30;7.87;;;;;;;8.19;100.00;102178.28;5096248;28;20415;-40
2024/02/21 00:38:18;;;;;;;14.77;7.37;;;;;;;8.16;100.00;102183.22;5096055;28;20460;-40
2024/02/21 00:40:44;;;;;;;16.20;7.07;;;;;;;8.08;100.00;102172.50;5095529;28;20032;-41
2024/02/21 00:43:09;;;;;;;16.43;7.03;;;;;;;8.13;100.00;102172.78;5095956;28;20048;-41
2024/02/21 00:45:34;;;;;;;16.45;7.63;;;;;;;8.10;100.00;102170.44;5096274;28;20035;-41
2024/02/21 00:48:00;;;;;;;15.00;7.30;;;;;;;8.00;100.00;102155.41;5095922;28;20519;-41
2024/02/21 00:50:25;;;;;;;15.50;7.50;;;;;;;8.06;100.00;102161.09;5095976;28;20448;-41
2024/02/21 00:52:50;;;;;;;14.13;7.03;;;;;;;8.03;100.00;102156.03;5095631;28;20364;-39
2024/02/21 00:55:16;;;;;;;14.27;6.93;;;;;;;7.91;100.00;102145.72;5095871;28;20373;-40
2024/02/21 00:57:41;;;;;;;15.97;7.30;;;;;;;7.98;100.00;102161.97;5095536;28;20055;-40
2024/02/21 01:00:07;;;;;;;18.13;7.23;;;;;;;7.96;100.00;102155.94;5095828;28;20024;-40
2024/02/21 01:02:33;;;;;;;16.58;7.32;;;;;;;7.95;100.00;102163.19;5095137;28;20024;-40
2024/02/21 01:04:58;;;;;;;15.88;6.82;;;;;;;7.94;100.00;102161.50;5095376;28;20031;-40
2024/02/21 01:07:24;;;;;;;16.20;7.38;;;;;;;7.87;100.00;102147.09;5095265;28;20077;-40
2024/02/21 01:09:51;;;;;;;10.93;6.20;;;;;;;7.93;100.00;102150.91;5095316;28;20053;-40
2024/02/21 01:12:16;;;;;;;14.35;6.45;;;;;;;7.94;100.00;102161.50;5095843;28;20051;-40
2024/02/21 01:14:41;;;;;;;13.57;6.82;;;;;;;7.95;100.00;102156.94;5094870;28;20105;-40
2024/02/21 01:17:07;;;;;;;14.33;5.80;;;;;;;7.96;100.00;102140.63;5094592;28;20123;-41
2024/02/21 01:19:32;;;;;;;15.77;6.90;;;;;;;7.94;100.00;102148.03;5094833;28;20294;-40
2024/02/21 01:21:58;;;;;;;15.47;6.37;;;;;;;7.96;100.00;102146.00;5094991;28;20270;-40
2024/02/21 01:24:24;;;;;;;16.53;6.97;;;;;;;7.91;100.00;102136.81;5095060;28;20274;-40
2024/02/21 01:26:49;;;;;;;14.77;5.90;;;;;;;7.98;100.00;102141.25;5095728;28;20098;-39
2024/02/21 01:29:14;;;;;;;13.57;5.97;;;;;;;8.02;100.00;102138.22;5095797;28;20061;-39
2024/02/21 01:31:40;;;;;;;15.73;6.93;;;;;;;7.94;100.00;102120.25;5094789;28;20361;-39
2024/02/21 01:34:05;;;;;;;15.27;5.67;;;;;;;8.03;100.00;102135.31;5095107;28;20032;-41
2024/02/21 01:36:30;;;;;;;12.47;5.80;;;;;;;8.02;100.00;102140.91;5094458;28;20066;-41
2024/02/21 01:38:56;;;;;;;13.83;5.87;;;;;;;7.95;100.00;102128.19;5095114;28;20024;-41
2024/02/21 01:41:21;;;;;;;13.63;5.97;;;;;;;8.02;100.00;102124.75;5094988;28;20028;-41
2024/02/21 01:43:46;;;;;;;13.13;5.67;;;;;;;8.00;100.00;102117.69;5094655;28;20024;-41
2024/02/21 01:46:12;;;;;;;16.20;6.37;;;;;;;8.02;100.00;102122.88;5094379;28;20464;-41
2024/02/21 01:48:37;;;;;;;16.05;5.88;;;;;;;8.04;100.00;102117.31;5094867;28;20465;-41
2024/02/21 01:51:04;;;;;;;11.68;5.35;;;;;;;8.04;100.00;102114.63;5094213;28;20043;-40
2024/02/21 01:53:32;;;;;;;11.90;5.22;;;;;;;8.00;100.00;102114.13;5094478;28;20032;-40
2024/02/21 01:55:58;;;;;;;14.00;5.75;;;;;;;8.04;100.00;102101.97;5094357;28;20048;-40
2024/02/21 01:58:24;;;;;;;11.90;5.57;;;;;;;8.04;100.00;102095.75;5094098;28;20032;-39
2024/02/21 02:00:50;;;;;;;14.30;5.43;;;;;;;8.07;100.00;102098.09;5094922;28;20038;-39
2024/02/21 02:03:18;;;;;;;11.43;5.47;;;;;;;7.97;100.00;102096.50;5094634;28;20072;-39
2024/02/21 02:05:47;;;;;;;12.32;5.05;;;;;;;8.05;100.00;102109.03;5094783;28;20061;-39
2024/02/21 02:08:17;;;;;;;14.13;5.70;;;;;;;8.07;100.00;102109.69;5094504;28;20103;-40
2024/02/21 02:10:43;;;;;;;10.82;4.50;;;;;;;7.99;100.00;102097.13;5093876;28;20031;-39
2024/02/21 02:13:08;;;;;;;14.05;4.90;;;;;;;8.06;100.00;102101.81;5094683;28;20020;-40
2024/02/21 02:15:44;;;;;;;15.02;6.13;;;;;;;8.08;100.00;102094.38;5094569;28;20116;-39
2024/02/21 02:18:10;;;;;;;11.75;4.70;;;;;;;8.09;100.00;102090.66;5094105;28;20036;-39
2024/02/21 02:20:36;;;;;;;11.82;4.60;;;;;;;8.05;100.00;102082.09;5094833;28;20504;-39
2024/02/21 02:23:24;;;;;;;11.07;4.47;;;;;;;8.09;100.00;102077.19;5093732;28;20055;-39
2024/02/21 02:25:53;;;;;;;9.93;4.50;;;;;;;8.07;100.00;102071.16;5083283;28;20028;-40
2024/02/21 02:28:19;;;;;;;13.98;4.53;;;;;;;8.06;100.00;102070.31;5093903;28;20028;-40
2024/02/21 02:30:45;;;;;;;9.77;4.30;;;;;;;8.06;100.00;102067.63;5094377;28;20031;-40
2024/02/21 02:33:11;;;;;;;10.23;4.22;;;;;;;8.04;100.00;102064.25;5093839;28;20380;-40
2024/02/21 02:35:36;;;;;;;9.63;4.27;;;;;;;8.06;100.00;102066.78;5093503;28;20034;-40
2024/02/21 02:38:02;;;;;;;10.33;4.63;;;;;;;8.05;100.00;102065.94;5094077;28;20127;-40
2024/02/21 02:40:27;;;;;;;;;;;;;;;8.11;100.00;102061.69;5094719;28;20028;-40
2024/02/21 02:42:54;;;;;;;9.52;4.47;;;;;;;8.05;100.00;102065.09;5093897;28;19919;-40
2024/02/21 02:45:23;;;;;;;13.48;4.80;;;;;;;8.03;100.00;102064.44;5094241;28;20036;-40
2024/02/21 02:47:48;;;;;;;9.27;4.40;;;;;;;8.02;100.00;102052.00;5093600;28;20032;-39
2024/02/21 02:50:14;;;;;;;12.73;4.50;;;;;;;7.97;100.00;102044.47;5093962;28;20032;-40
2024/02/21 02:52:39;;;;;;;12.35;4.78;;;;;;;8.03;100.00;102051.81;5093599;28;20027;-40
2024/02/21 02:55:05;;;;;;;11.60;4.30;;;;;;;7.99;100.00;102040.56;5093763;28;20131;-40
2024/02/21 02:57:31;;;;;;;10.45;4.50;;;;;;;8.00;100.00;102050.34;5094129;28;20024;-39
2024/02/21 02:59:56;;;;;;;7.60;4.03;;;;;;;7.97;100.00;102042.63;5093860;28;20514;-40
2024/02/21 03:02:22;;;;;;;8.33;4.30;;;;;;;8.02;100.00;102046.63;5094342;28;20427;-39
2024/02/21 03:04:47;;;;;;;11.52;4.72;;;;;;;8.04;100.00;102047.25;5093467;28;20074;-39
2024/02/21 03:07:14;;;;;;;7.13;4.07;;;;;;;8.00;100.00;102042.25;5093203;28;20039;-39
2024/02/21 03:09:40;;;;;;;12.13;3.92;;;;;;;8.02;100.00;102043.94;5094271;28;20038;-39
2024/02/21 03:12:06;;;;;;;9.52;3.85;;;;;;;8.01;100.00;102043.09;5093642;28;20511;-39
2024/02/21 03:14:35;;;;;;;9.45;4.88;;;;;;;7.99;100.00;102035.19;5093342;28;20113;-39
2024/02/21 03:17:01;;;;;;;10.77;4.63;;;;;;;8.05;100.00;102048.94;5093378;28;20062;-40
2024/02/21 03:19:26;;;;;;;12.15;4.22;;;;;;;8.04;100.00;102026.53;5093304;28;20028;-39
2024/02/21 03:21:52;;;;;;;7.80;4.18;;;;;;;8.05;100.00;102030.91;5093034;28;20107;-39
2024/02/21 03:24:18;;;;;;;9.98;3.75;;;;;;;8.05;100.00;102022.00;5093589;28;20421;-39
2024/02/21 03:26:44;;;;;;;13.68;4.68;;;;;;;7.96;100.00;102011.31;5093521;28;20035;-40
2024/02/21 03:29:11;;;;;;;10.20;5.03;;;;;;;8.05;100.00;102019.28;5093289;28;20031;-40
2024/02/21 03:31:37;;;;;;;9.73;4.00;;;;;;;8.06;100.00;102012.91;5092891;28;20041;-39
2024/02/21 03:34:02;;;;;;;10.55;4.22;;;;;;;8.05;100.00;102003.13;5093687;28;20028;-40
2024/02/21 03:36:28;;;;;;;9.15;4.18;;;;;;;8.06;100.00;102002.97;5093665;28;20024;-39
2024/02/21 03:38:54;;;;;;;8.18;4.18;;;;;;;7.97;100.00;101980.66;5093726;28;20404;-39
2024/02/21 03:41:20;;;;;;;8.20;4.07;;;;;;;8.04;100.00;101988.00;5093866;28;20119;-39
2024/02/21 03:43:45;;;;;;;12.43;4.50;;;;;;;8.06;100.00;101984.13;5097261;28;20106;-40
2024/02/21 03:46:11;;;;;;;11.27;4.60;;;;;;;8.05;100.00;101982.41;5096914;28;20044;-41
2024/02/21 03:48:36;;;;;;;9.93;4.17;;;;;;;7.97;100.00;101961.81;5097189;28;20413;-39
2024/02/21 03:51:02;;;;;;;7.18;4.63;;;;;;;8.00;100.00;101969.53;5096835;28;20402;-39
2024/02/21 03:53:28;;;;;;;11.95;4.65;;;;;;;8.02;100.00;101972.03;5097602;28;20031;-39
2024/02/21 03:55:54;;;;;;;8.80;4.22;;;;;;;8.03;100.00;101964.78;5096996;28;20139;-39
2024/02/21 03:58:19;;;;;;;10.65;4.30;;;;;;;7.95;100.00;101952.22;5096698;28;20121;-39
2024/02/21 04:00:45;;;;;;;8.02;4.35;;;;;;;8.03;100.00;101962.91;5096390;28;20040;-39
2024/02/21 04:03:10;;;;;;;10.73;4.63;;;;;;;7.96;100.00;101957.47;5096450;28;20024;-39
2024/02/21 04:05:35;;;;;;;11.33;4.63;;;;;;;7.95;100.00;101953.09;5096278;28;20349;-39
2024/02/21 04:08:04;;;;;;;7.43;4.27;;;;;;;8.00;100.00;101966.84;5096931;28;20035;-39
2024/02/21 04:10:30;;;;;;;10.95;4.95;;;;;;;8.02;100.00;101977.41;5097032;28;20036;-40
2024/02/21 04:12:55;;;;;;;12.45;5.20;;;;;;;8.04;100.00;101983.44;5096680;28;20024;-40
2024/02/21 04:15:20;;;;;;;12.67;5.13;;;;;;;8.05;100.00;101982.41;5096152;28;20529;-39
2024/02/21 04:17:46;;;;;;;13.27;5.43;;;;;;;8.00;100.00;101974.06;5096086;28;20391;-39
2024/02/21 04:20:15;;;;;;;9.93;4.47;;;;;;;8.07;100.00;101984.94;5096361;28;20020;-39
2024/02/21 04:22:43;;;;;;;9.50;4.75;;;;;;;8.08;100.00;101968.59;5096714;28;20460;-39
2024/02/21 04:25:09;;;;;;;9.27;4.50;;;;;;;8.05;100.00;101962.72;5095920;28;20585;-40
2024/02/21 04:27:34;;;;;;;10.90;5.30;;;;;;;8.01;100.00;101970.38;5096491;28;20099;-39
2024/02/21 04:29:59;;;;;;;8.97;4.53;;;;;;;8.05;100.00;101965.41;5095917;28;20062;-39
2024/02/21 04:32:27;;;;;;;10.60;4.77;;;;;;;8.06;100.00;101964.41;5095632;28;20270;-40
2024/02/21 04:34:52;;;;;;;10.82;5.25;;;;;;;8.04;100.00;101959.19;5096164;28;20418;-40
2024/02/21 04:37:18;;;;;;;10.88;4.72;;;;;;;7.95;100.00;101945.03;5095862;28;20027;-39
2024/02/21 04:39:44;;;;;;;11.55;4.90;;;;;;;8.03;100.00;101956.69;5096440;28;20058;-39
2024/02/21 04:42:09;;;;;;;11.95;5.32;;;;;;;8.10;100.00;101971.94;5096122;28;20503;-39
2024/02/21 04:44:34;;;;;;;8.97;4.67;;;;;;;8.10;100.00;101971.94;5096116;28;20036;-39
2024/02/21 04:47:00;;;;;;;7.50;4.23;;;;;;;8.11;100.00;101962.84;5095416;28;20039;-39
2024/02/21 04:49:26;;;;;;;8.57;4.60;;;;;;;8.06;100.00;101951.78;5096311;28;20058;-39
2024/02/21 04:51:51;;;;;;;11.63;5.27;;;;;;;8.12;100.00;101964.50;5095539;28;20451;-39
2024/02/21 04:54:16;;;;;;;10.63;5.30;;;;;;;8.12;100.00;101944.81;5095501;28;20047;-39
2024/02/21 04:56:42;;;;;;;10.87;5.27;;;;;;;8.10;100.00;101942.31;5095640;28;20028;-39
2024/02/21 04:59:07;;;;;;;11.13;5.30;;;;;;;8.09;100.00;101945.16;5095805;28;20056;-39
2024/02/21 05:01:32;;;;;;;8.87;4.73;;;;;;;8.12;100.00;101952.88;5095482;28;20027;-39
2024/02/21 05:03:58;;;;;;;12.07;4.57;;;;;;;8.04;100.00;101931.44;5095748;28;20039;-40
2024/02/21 05:06:23;;;;;;;10.53;4.80;;;;;;;8.07;100.00;101928.38;5095456;28;20047;-40
2024/02/21 05:08:49;;;;;;;10.50;4.70;;;;;;;8.10;100.00;101930.66;5095946;28;20349;-40
2024/02/21 05:11:14;;;;;;;7.70;4.80;;;;;;;8.08;100.00;101928.16;5094978;28;20027;-40
2024/02/21 05:13:39;;;;;;;12.03;4.53;;;;;;;8.09;100.00;101929.00;5094944;28;20274;-40
2024/02/21 05:16:06;;;;;;;9.53;5.23;;;;;;;8.08;100.00;101936.25;5095101;28;20111;-40
2024/02/21 05:18:32;;;;;;;10.65;5.35;;;;;;;7.99;100.00;101913.97;5094872;28;20031;-40
2024/02/21 05:20:59;;;;;;;11.25;5.28;;;;;;;8.04;100.00;101929.56;5095136;28;20028;-40
2024/02/21 05:23:24;;;;;;;;;;;;;;;8.11;100.00;101917.03;5095778;28;20383;-40
2024/02/21 05:25:49;;;;;;;9.03;4.90;;;;;;;8.03;100.00;101906.34;5094987;28;19908;-40
2024/02/21 05:28:15;;;;;;;12.07;5.77;;;;;;;8.03;100.00;101903.66;5094733;28;20690;-40
2024/02/21 05:30:40;;;;;;;12.53;5.40;;;;;;;8.03;100.00;101902.81;5095743;28;20039;-40
2024/02/21 05:33:07;;;;;;;10.55;6.18;;;;;;;8.00;100.00;101894.13;5094895;28;20024;-40
2024/02/21 05:35:32;;;;;;;11.15;5.53;;;;;;;7.98;100.00;101890.75;5095571;28;20085;-39
2024/02/21 05:37:59;;;;;;;12.10;6.80;;;;;;;7.91;100.00;101875.56;5095375;28;20024;-39
2024/02/21 05:40:25;;;;;;;9.50;6.03;;;;;;;7.95;100.00;101884.91;5094439;28;20047;-40
2024/02/21 05:42:51;;;;;;;9.13;5.80;;;;;;;7.95;100.00;101892.97;5094685;28;20024;-40
2024/02/21 05:45:17;;;;;;;11.45;5.80;;;;;;;7.87;100.00;101871.56;5094667;28;20035;-40
2024/02/21 05:47:43;;;;;;;13.05;6.00;;;;;;;7.96;100.00;101882.03;5094669;28;20099;-40
2024/02/21 05:50:09;;;;;;;14.15;6.95;;;;;;;7.92;100.00;101879.91;5094320;28;20037;-40
2024/02/21 05:52:34;;;;;;;;;;;;;;;8.00;100.00;101883.34;5095201;28;20448;-40
2024/02/21 05:54:59;;;;;;;11.63;6.43;;;;;;;7.85;100.00;101860.94;5094718;28;19999;-40
2024/02/21 05:57:25;;;;;;;13.50;6.63;;;;;;;7.92;100.00;101869.97;5094462;28;20282;-40
2024/02/21 05:59:50;;;;;;;11.83;6.17;;;;;;;7.86;100.00;101864.50;5094687;28;20379;-41
2024/02/21 06:02:15;;;;;;;11.53;6.37;;;;;;;7.91;100.00;101873.69;5094367;28;20112;-40
2024/02/21 06:04:42;;;;;;;13.20;6.23;;;;;;;7.91;100.00;101873.69;5094183;28;20028;-40
2024/02/21 06:07:08;;;;;;;10.57;5.63;;;;;;;7.91;100.00;101868.31;5094812;28;20028;-40
2024/02/21 06:09:33;;;;;;;11.65;6.13;;;;;;;7.91;100.00;101860.22;5093980;28;20032;-40
2024/02/21 06:11:59;;;;;;;11.82;5.93;;;;;;;7.92;100.00;101853.81;5093944;28;20031;-40
2024/02/21 06:14:24;;;;;;;13.87;6.13;;;;;;;7.93;100.00;101844.69;5076194;28;20032;-40
2024/02/21 06:16:49;;;;;;;11.67;6.00;;;;;;;7.93;100.00;101844.69;5094050;28;20115;-40
2024/02/21 06:19:15;;;;;;;14.30;6.05;;;;;;;7.92;100.00;101843.03;5094913;28;20071;-40
2024/02/21 06:21:40;;;;;;;11.23;5.30;;;;;;;7.94;100.00;101838.28;5094062;28;20027;-40
2024/02/21 06:24:06;;;;;;;13.10;5.97;;;;;;;7.91;100.00;101841.38;5094644;28;20111;-40
2024/02/21 06:26:31;;;;;;;11.20;6.22;;;;;;;7.92;100.00;101842.19;5094745;28;20098;-40
2024/02/21 06:28:57;;;;;;;10.63;5.33;;;;;;;7.90;100.00;101842.38;5094560;28;20027;-40
2024/02/21 06:31:22;;;;;;;12.77;5.82;;;;;;;7.81;100.00;101827.38;5094373;28;20047;-40
2024/02/21 06:33:48;;;;;;;7.90;5.43;;;;;;;7.88;100.00;101839.03;5093454;28;20027;-40
2024/02/21 06:36:13;;;;;;;12.07;5.50;;;;;;;7.87;100.00;101837.38;5093413;28;20039;-40
2024/02/21 06:38:38;;;;;;;9.97;5.07;;;;;;;7.92;100.00;101847.59;5093154;28;20817;-40
2024/02/21 06:41:04;;;;;;;10.13;5.30;;;;;;;7.92;100.00;101847.59;5093142;28;20028;-40
2024/02/21 06:43:29;;;;;;;10.05;5.32;;;;;;;7.91;100.00;101859.38;5093125;28;20511;-40
2024/02/21 06:45:56;;;;;;;11.18;5.25;;;;;;;7.92;100.00;101852.97;5093669;28;20063;-40
2024/02/21 06:48:22;;;;;;;10.82;5.22;;;;;;;7.86;100.00;101845.66;5093331;28;20028;-40
2024/02/21 06:50:47;;;;;;;9.95;5.38;;;;;;;7.85;100.00;101834.03;5092969;28;20070;-39
2024/02/21 06:53:13;;;;;;;8.60;5.87;;;;;;;7.88;100.00;101836.34;5093592;28;20111;-41
2024/02/21 06:55:38;;;;;;;10.90;5.22;;;;;;;7.85;100.00;101838.56;5093609;28;20603;-40
2024/02/21 06:58:04;;;;;;;9.52;5.63;;;;;;;7.96;100.00;101855.09;5093486;28;20069;-40
2024/02/21 07:00:29;;;;;;;12.25;5.15;;;;;;;7.84;100.00;101835.06;5093204;28;20126;-40
2024/02/21 07:02:55;;;;;;;10.82;6.00;;;;;;;7.96;100.00;101849.72;5093808;28;20195;-40
2024/02/21 07:05:20;;;;;;;11.48;5.70;;;;;;;7.95;100.00;101848.06;5093149;28;20028;-40
2024/02/21 07:07:46;;;;;;;10.68;6.20;;;;;;;7.93;100.00;101835.78;5093097;28;20055;-40
2024/02/21 07:10:11;;;;;;;9.70;5.37;;;;;;;7.94;100.00;101842.84;5093931;28;20103;-40
2024/02/21 07:12:38;;;;;;;12.70;6.23;;;;;;;7.93;100.00;101842.00;5093187;28;20383;-40
2024/02/21 07:15:05;;;;;;;11.10;6.03;;;;;;;7.91;100.00;101829.75;5093351;28;20140;-40
2024/02/21 07:17:30;;;;;;;11.43;5.75;;;;;;;7.90;100.00;101839.69;5096823;28;20032;-40
2024/02/21 07:19:59;;;;;;;11.15;5.88;;;;;;;7.93;100.00;101825.84;5098329;28;20484;-40
2024/02/21 07:22:24;;;;;;;11.38;6.22;;;;;;;7.90;100.00;101823.53;5097415;28;20028;-40
2024/02/21 07:24:50;;;;;;;15.35;5.93;;;;;;;7.94;100.00;101823.97;5097652;28;20032;-40
2024/02/21 07:27:16;;;;;;;11.00;6.13;;;;;;;7.90;100.00;101818.13;5097933;28;20055;-40
2024/02/21 07:29:41;;;;;;;;;;;;;;;8.02;100.00;101823.88;5098077;28;20030;-39
2024/02/21 07:32:07;;;;;;;12.73;5.90;;;;;;;7.96;100.00;101821.94;5097203;28;19908;-40
2024/02/21 07:34:32;;;;;;;11.60;6.50;;;;;;;7.90;100.00;101812.75;5097746;28;20055;-40
2024/02/21 07:36:57;;;;;;;12.57;6.57;;;;;;;7.97;100.00;101816.38;5097398;28;20373;-40
2024/02/21 07:39:23;;;;;;;10.65;6.18;;;;;;;7.85;100.00;101785.56;5097938;28;20051;-40
2024/02/21 07:41:49;;;;;;;9.33;6.50;;;;;;;7.99;100.00;101800.84;5097011;28;20016;-39
2024/02/21 07:44:15;;;;;;;12.05;6.28;;;;;;;7.95;100.00;101787.94;5097570;28;20258;-39
2024/02/21 07:46:40;;;;;;;14.65;6.80;;;;;;;7.96;100.00;101779.69;5096915;28;20024;-39
2024/02/21 07:49:05;;;;;;;10.93;6.03;;;;;;;7.96;100.00;101773.47;5096949;28;20383;-40
2024/02/21 07:51:31;;;;;;;9.97;5.97;;;;;;;8.05;100.00;101780.38;5097749;28;20323;-40
2024/02/21 07:53:56;;;;;;;11.27;6.57;;;;;;;8.03;100.00;101774.34;5096819;28;20467;-40
2024/02/21 07:56:22;;;;;;;11.07;6.17;;;;;;;8.06;100.00;101770.47;5096882;28;20097;-40
2024/02/21 07:58:47;;;;;;;11.27;6.25;;;;;;;8.05;100.00;101761.53;5096772;28;20016;-40
2024/02/21 08:01:19;;;;;;;9.30;6.10;;;;;;;8.03;100.00;101751.97;5097297;28;20032;-40
2024/02/21 08:03:44;;;;;;;12.40;6.03;;;;;;;8.12;100.00;101756.22;5097195;28;20024;-40
2024/02/21 08:06:13;;;;;;;11.17;6.43;;;;;;;8.12;100.00;101767.00;5096592;28;20169;-40
2024/02/21 08:08:39;;;;;;;12.57;5.93;;;;;;;8.15;100.00;101762.06;5096856;28;20372;-39
2024/02/21 08:11:04;;;;;;;9.70;6.30;;;;;;;8.15;100.00;101758.50;5096258;28;20024;-40
2024/02/21 08:13:30;;;;;;;11.10;6.03;;;;;;;8.10;100.00;101742.94;5078399;28;20024;-40
2024/02/21 08:15:55;;;;;;;7.53;5.47;;;;;;;8.22;100.00;101751.34;5096401;28;20032;-40
2024/02/21 08:18:21;;;;;;;10.95;6.07;;;;;;;8.24;100.00;101749.28;5096465;28;20020;-40
2024/02/21 08:20:46;;;;;;;12.93;6.70;;;;;;;8.24;100.00;101741.19;5096668;28;20111;-40
2024/02/21 08:23:11;;;;;;;15.00;6.33;;;;;;;8.12;100.00;101719.34;5096953;28;20027;-40
2024/02/21 08:25:37;;;;;;;9.97;6.10;;;;;;;8.16;100.00;101715.22;5096327;28;20714;-40
2024/02/21 08:28:02;;;;;;;9.90;6.70;;;;;;;8.27;100.00;101722.78;5095424;28;20032;-40
2024/02/21 08:30:28;;;;;;;11.50;5.93;;;;;;;8.26;100.00;101721.13;5096664;28;20028;-40
2024/02/21 08:32:56;;;;;;;11.43;6.67;;;;;;;8.28;100.00;101720.91;5096383;28;20028;-40
2024/02/21 08:35:24;;;;;;;11.98;5.78;;;;;;;8.29;100.00;101713.66;5096610;28;20356;-40
2024/02/21 08:37:50;;;;;;;11.15;6.18;;;;;;;8.31;100.00;101715.16;5095685;28;20028;-40
2024/02/21 08:40:17;;;;;;;12.60;6.47;;;;;;;8.36;100.00;101715.44;5096829;28;20020;-40
2024/02/21 08:42:43;;;;;;;12.15;6.47;;;;;;;8.37;100.00;101706.31;5096984;28;20024;-40
2024/02/21 08:45:10;;;;;;;11.52;5.15;;;;;;;8.41;100.00;101706.75;5096743;28;20528;-40
2024/02/21 08:47:35;;;;;;;11.63;5.57;;;;;;;8.41;100.00;101702.19;5095791;28;20078;-40
2024/02/21 08:50:01;;;;;;;8.93;4.95;;;;;;;8.42;100.00;101687.69;5095813;28;20357;-39
2024/02/21 08:52:27;;;;;;;9.27;4.60;;;;;;;8.50;100.00;101684.84;5095388;28;20028;-39
2024/02/21 08:54:53;;;;;;;6.47;4.27;;;;;;;8.53;100.00;101683.59;5096013;28;20135;-39
2024/02/21 08:57:19;;;;;;;8.75;4.90;;;;;;;8.57;100.00;101679.50;5078348;28;20368;-39
2024/02/21 08:59:44;;;;;;;8.85;5.22;;;;;;;8.49;100.00;101658.94;5095597;28;20025;-39
2024/02/21 09:02:10;;;;;;;7.30;4.97;;;;;;;8.63;100.00;101672.47;5095523;28;20610;-39
2024/02/21 09:04:35;;;;;;;8.20;4.60;;;;;;;8.64;100.00;101668.78;5096035;28;20035;-39
2024/02/21 09:07:00;;;;;;;7.70;4.77;;;;;;;8.65;100.00;101670.44;5095397;28;20066;-39
2024/02/21 09:09:28;;;;;;;5.77;4.03;;;;;;;8.68;100.00;101667.31;5095431;28;20040;-40
2024/02/21 09:11:53;;;;;;;6.15;4.10;;;;;;;8.68;100.00;101667.31;5095608;28;20278;-40
2024/02/21 09:14:18;;;;;;;6.30;4.60;;;;;;;8.61;100.00;101653.81;5095328;28;20487;-40
2024/02/21 09:16:44;;;;;;;5.80;3.97;;;;;;;8.61;100.00;101653.81;5095226;28;20036;-40
2024/02/21 09:19:10;;;;;;;7.57;4.37;;;;;;;8.64;100.00;101660.69;5094962;28;20028;-40
2024/02/21 09:21:37;;;;;;;6.03;3.90;;;;;;;8.64;100.00;101658.81;5095376;28;20270;-40
2024/02/21 09:24:02;;;;;;;5.88;4.15;;;;;;;8.59;100.00;101653.19;5095758;28;20054;-40
2024/02/21 09:26:28;;;;;;;7.07;4.57;;;;;;;8.61;100.00;101659.19;5095091;28;20024;-40
2024/02/21 09:28:53;;;;;;;7.47;4.40;;;;;;;8.58;100.00;101659.59;5095022;28;20051;-40
2024/02/21 09:31:19;;;;;;;6.00;3.75;;;;;;;8.51;100.00;101646.06;5094968;28;20034;-40
2024/02/21 09:33:45;;;;;;;5.38;4.13;;;;;;;8.55;100.00;101653.78;5094929;28;20028;-40
2024/02/21 09:36:10;;;;;;;6.00;3.95;;;;;;;8.47;100.00;101644.78;5095336;28;20031;-40
2024/02/21 09:38:36;;;;;;;4.75;4.32;;;;;;;8.45;100.00;101641.47;5094076;28;20107;-40
2024/02/21 09:41:18;;;;;;;5.23;4.23;;;;;;;8.44;100.00;101636.25;5094694;28;20082;-40
2024/02/21 09:43:45;;;;;;;5.88;4.30;;;;;;;8.36;100.00;101617.53;5094735;28;20344;-40
2024/02/21 09:46:17;;;;;;;5.75;4.72;;;;;;;8.35;100.00;101622.09;5094970;28;20135;-40
2024/02/21 09:48:53;;;;;;;7.15;5.18;;;;;;;8.36;100.00;101614.84;5094977;28;20124;-40
2024/02/21 09:51:21;;;;;;;6.32;5.32;;;;;;;8.30;100.00;101603.00;5094904;28;20059;-39
2024/02/21 09:53:48;;;;;;;7.70;5.40;;;;;;;8.26;100.00;101591.78;5094812;28;20020;-39
2024/02/21 09:56:13;;;;;;;6.47;5.65;;;;;;;8.27;100.00;101581.81;5094839;28;20058;-39
2024/02/21 09:58:41;;;;;;;8.47;6.07;;;;;;;8.26;100.00;101582.88;5094528;28;20111;-39
2024/02/21 10:01:06;;;;;;;6.95;5.85;;;;;;;8.31;100.00;101576.88;5076614;28;20024;-40
2024/02/21 10:03:33;;;;;;;6.73;5.90;;;;;;;8.33;100.00;101570.25;5094408;28;20032;-39
2024/02/21 10:06:00;;;;;;;7.22;6.13;;;;;;;8.34;100.00;101563.00;5094326;28;20278;-39
2024/02/21 10:08:26;;;;;;;7.65;6.13;;;;;;;8.40;100.00;101565.78;5094856;28;20024;-38
2024/02/21 10:10:55;;;;;;;7.85;6.05;;;;;;;8.41;100.00;101540.47;5094223;28;20028;-39
2024/02/21 10:13:29;;;;;;;8.57;6.00;;;;;;;8.46;100.00;101554.19;5094461;28;20357;-39
2024/02/21 10:16:02;;;;;;;7.65;5.90;;;;;;;8.49;100.00;101531.38;5094095;28;20031;-40
2024/02/21 10:18:27;;;;;;;8.52;5.50;;;;;;;8.58;100.00;101529.34;5075669;28;20058;-39
2024/02/21 10:21:06;;;;;;;9.10;5.43;;;;;;;8.58;100.00;101511.31;5093737;28;20067;-39
2024/02/21 10:23:45;;;;;;;8.30;5.45;;;;;;;8.63;100.00;101513.41;5094841;28;20028;-39
2024/02/21 10:26:11;;;;;;;7.95;5.03;;;;;;;8.69;100.00;101508.06;5093628;28;20028;-39
2024/02/21 10:28:41;;;;;;;11.00;5.40;;;;;;;8.75;100.00;101514.50;5094506;28;20111;-40
2024/02/21 10:31:07;;;;;;;8.88;5.07;;;;;;;8.79;100.00;101496.88;5093853;28;20277;-40
2024/02/21 10:33:33;;;;;;;8.75;5.13;;;;;;;8.83;100.00;101490.03;5094725;28;20028;-40
2024/02/21 10:36:09;;;;;;;7.10;4.57;;;;;;;8.86;100.00;101480.72;5094347;28;20452;-40
2024/02/21 10:38:38;;;;;;;7.65;4.75;;;;;;;8.89;100.00;101470.34;5094681;28;20258;-46
2024/02/21 10:41:06;;;;;;;9.57;4.32;;;;;;;8.86;100.00;101451.88;5093682;28;20031;-39
2024/02/21 10:43:42;;;;;;;7.72;4.53;;;;;;;9.01;100.00;101454.38;5094617;28;20341;-40
2024/02/21 10:46:12;;;;;;;7.90;4.50;;;;;;;8.96;100.00;101411.84;5093651;28;20024;-39
2024/02/21 10:48:47;;;;;;;10.00;4.43;;;;;;;9.12;100.00;101421.38;5094492;28;20376;-39
2024/02/21 10:51:20;;;;;;;8.80;4.10;;;;;;;9.06;100.00;101395.22;5094293;28;20035;-39
2024/02/21 10:54:07;;;;;;;12.80;4.38;;;;;;;9.20;100.00;101407.69;5094095;28;20464;-40
2024/02/21 10:56:36;;;;;;;9.45;4.20;;;;;;;9.18;100.00;101417.03;5093320;28;20079;-40
2024/02/21 10:59:04;;;;;;;6.78;3.45;;;;;;;9.20;100.00;101423.06;5093903;28;20039;-40
2024/02/21 11:01:35;;;;;;;6.78;3.95;;;;;;;9.17;100.00;101424.28;5094135;28;20050;-40
2024/02/21 11:04:03;;;;;;;8.18;3.80;;;;;;;9.17;100.00;101420.75;5094093;28;20061;-40
2024/02/21 11:06:29;;;;;;;5.57;3.15;;;;;;;9.23;100.00;101438.84;5093446;28;20032;-39
2024/02/21 11:09:02;;;;;;;8.55;3.63;;;;;;;9.25;100.00;101428.66;5093833;28;20034;-40
2024/02/21 11:11:28;;;;;;;7.28;3.67;;;;;;;9.26;100.00;101430.31;5093407;28;20024;-40
2024/02/21 11:14:05;;;;;;;6.30;3.47;;;;;;;9.32;100.00;101428.66;5093452;28;20032;-40
2024/02/21 11:16:35;;;;;;;5.72;3.35;;;;;;;9.26;100.00;101414.94;5093713;28;20024;-40
2024/02/21 11:19:21;;;;;;;7.72;3.00;;;;;;;9.25;100.00;101402.50;5093168;28;20495;-40